Wetterdaten: Woche 06.09.10 - 12.09.10 (KW36)
Datum Zeit Temperatur Luftfeuchte Luftdruck Niederschlag Wind Richtung Sonnenschein Solar Taupunkt Windchill Windben
06.09.2010 00:00 12.5 C 88 % 1017.1 hPa 0.0 l/m 0.3 km/h (0 Bft) O-NO 0.00 h 0 W/m 10.5 C 12.5 C 0.9 km/h (0 Bft)
06.09.2010 01:00 11.7 C 90 % 1017.1 hPa 0.0 l/m 0.4 km/h (0 Bft) O-NO 0.00 h 0 W/m 10.1 C 11.7 C 1.0 km/h (0 Bft)
06.09.2010 02:00 11.2 C 90 % 1016.9 hPa 0.0 l/m 0.0 km/h (0 Bft) O-NO 0.00 h 0 W/m 9.7 C 11.2 C 0.3 km/h (0 Bft)
06.09.2010 03:00 10.6 C 92 % 1016.7 hPa 0.0 l/m 0.0 km/h (0 Bft) N 0.00 h 0 W/m 9.4 C 10.6 C 0.2 km/h (0 Bft)
06.09.2010 04:00 10.3 C 93 % 1016.6 hPa 0.0 l/m 0.0 km/h (0 Bft) N 0.00 h 0 W/m 9.2 C 10.3 C 0.1 km/h (0 Bft)
06.09.2010 05:00 9.8 C 95 % 1016.3 hPa 0.0 l/m 0.0 km/h (0 Bft) N 0.00 h 0 W/m 9.1 C 9.8 C 0.0 km/h (0 Bft)
06.09.2010 06:00 9.5 C 96 % 1016.2 hPa 0.0 l/m 0.0 km/h (0 Bft) N 0.00 h 6 W/m 8.8 C 9.5 C 0.1 km/h (0 Bft)
06.09.2010 07:00 9.3 C 97 % 1016.5 hPa 0.0 l/m 0.1 km/h (0 Bft) O-NO 0.05 h 26 W/m 8.8 C 9.3 C 0.8 km/h (0 Bft)
06.09.2010 08:00 11.7 C 93 % 1016.4 hPa 0.0 l/m 0.1 km/h (0 Bft) O-NO 0.95 h 195 W/m 10.6 C 11.7 C 0.3 km/h (0 Bft)
06.09.2010 09:00 14.1 C 80 % 1016.2 hPa 0.0 l/m 2.1 km/h (1 Bft) O-SO 1.00 h 358 W/m 10.6 C 14.1 C 5.0 km/h (1 Bft)
06.09.2010 10:00 16.0 C 71 % 1015.7 hPa 0.0 l/m 3.1 km/h (1 Bft) O-SO 1.00 h 507 W/m 10.8 C 16.0 C 6.0 km/h (2 Bft)
06.09.2010 11:00 17.5 C 65 % 1015.3 hPa 0.0 l/m 5.9 km/h (2 Bft) SO 1.00 h 623 W/m 10.9 C 17.5 C 9.6 km/h (2 Bft)
06.09.2010 12:00 18.8 C 60 % 1014.5 hPa 0.0 l/m 8.1 km/h (2 Bft) O-SO 1.00 h 697 W/m 10.9 C 18.8 C 14.1 km/h (3 Bft)
06.09.2010 13:00 19.8 C 55 % 1013.6 hPa 0.0 l/m 10.0 km/h (2 Bft) O-SO 0.97 h 720 W/m 10.5 C 19.8 C 15.5 km/h (3 Bft)
06.09.2010 14:00 20.4 C 52 % 1012.9 hPa 0.0 l/m 8.0 km/h (2 Bft) O-SO 1.00 h 636 W/m 10.3 C 20.4 C 13.3 km/h (3 Bft)
06.09.2010 15:00 20.0 C 53 % 1012.1 hPa 0.0 l/m 7.6 km/h (2 Bft) O-SO 0.20 h 317 W/m 10.0 C 20.0 C 12.1 km/h (2 Bft)
06.09.2010 16:00 19.7 C 56 % 1011.4 hPa 0.0 l/m 3.0 km/h (1 Bft) O-SO 0.00 h 206 W/m 10.7 C 19.7 C 6.1 km/h (2 Bft)
06.09.2010 17:00 19.7 C 58 % 1011.3 hPa 0.0 l/m 2.4 km/h (1 Bft) O-SO 0.67 h 233 W/m 11.2 C 19.7 C 5.2 km/h (1 Bft)
06.09.2010 18:00 19.1 C 58 % 1011.0 hPa 0.0 l/m 1.2 km/h (1 Bft) O 0.00 h 95 W/m 10.6 C 19.1 C 4.0 km/h (1 Bft)
06.09.2010 19:00 17.8 C 63 % 1011.0 hPa 0.0 l/m 0.2 km/h (0 Bft) NO 0.00 h 21 W/m 10.6 C 17.8 C 1.3 km/h (1 Bft)
06.09.2010 20:00 16.6 C 70 % 1011.0 hPa 0.0 l/m 0.2 km/h (0 Bft) NO 0.00 h 0 W/m 11.1 C 16.6 C 1.0 km/h (0 Bft)
06.09.2010 21:00 16.0 C 74 % 1011.3 hPa 0.0 l/m 0.3 km/h (0 Bft) O-NO 0.00 h 0 W/m 11.5 C 16.0 C 1.3 km/h (1 Bft)
06.09.2010 22:00 15.5 C 73 % 1010.7 hPa 0.0 l/m 1.6 km/h (1 Bft) S-SO 0.00 h 0 W/m 10.7 C 15.5 C 3.7 km/h (1 Bft)
06.09.2010 23:00 14.9 C 77 % 1010.5 hPa 0.0 l/m 0.5 km/h (0 Bft) O-SO 0.00 h 0 W/m 10.8 C 14.9 C 1.6 km/h (1 Bft)
07.09.2010 00:00 14.5 C 79 % 1010.3 hPa 0.2 l/m 0.6 km/h (0 Bft) NO 0.00 h 0 W/m 10.8 C 14.5 C 2.0 km/h (1 Bft)
07.09.2010 01:00 13.3 C 86 % 1009.6 hPa 0.2 l/m 0.8 km/h (0 Bft) O-SO 0.00 h 0 W/m 11.0 C 13.3 C 2.2 km/h (1 Bft)
07.09.2010 02:00 13.0 C 88 % 1008.9 hPa 0.0 l/m 0.8 km/h (0 Bft) O-SO 0.00 h 0 W/m 11.1 C 13.0 C 2.3 km/h (1 Bft)
07.09.2010 03:00 12.8 C 90 % 1008.7 hPa 0.6 l/m 0.9 km/h (0 Bft) O-NO 0.00 h 0 W/m 11.2 C 12.8 C 2.3 km/h (1 Bft)
07.09.2010 04:00 12.3 C 92 % 1007.5 hPa 0.4 l/m 1.9 km/h (1 Bft) O-SO 0.00 h 0 W/m 11.0 C 12.3 C 4.2 km/h (1 Bft)
07.09.2010 05:00 12.1 C 93 % 1007.1 hPa 0.0 l/m 0.4 km/h (0 Bft) O 0.00 h 0 W/m 11.1 C 12.1 C 1.2 km/h (1 Bft)
07.09.2010 06:00 12.1 C 95 % 1006.8 hPa 0.2 l/m 0.4 km/h (0 Bft) O 0.00 h 0 W/m 11.3 C 12.1 C 1.0 km/h (0 Bft)
07.09.2010 07:00 12.0 C 96 % 1007.5 hPa 1.0 l/m 0.8 km/h (0 Bft) O 0.00 h 7 W/m 11.3 C 12.0 C 1.7 km/h (1 Bft)
07.09.2010 08:00 12.2 C 96 % 1007.5 hPa 1.6 l/m 2.0 km/h (1 Bft) O-SO 0.00 h 29 W/m 11.6 C 12.2 C 3.2 km/h (1 Bft)
07.09.2010 09:00 12.8 C 97 % 1007.5 hPa 0.2 l/m 0.1 km/h (0 Bft) O 0.00 h 83 W/m 12.3 C 12.8 C 0.3 km/h (0 Bft)
07.09.2010 10:00 13.7 C 97 % 1007.6 hPa 0.2 l/m 0.1 km/h (0 Bft) O 0.00 h 181 W/m 13.2 C 13.7 C 0.4 km/h (0 Bft)
07.09.2010 11:00 14.1 C 97 % 1007.3 hPa 0.0 l/m 0.1 km/h (0 Bft) O 0.00 h 124 W/m 13.7 C 14.1 C 0.5 km/h (0 Bft)
07.09.2010 12:00 14.6 C 97 % 1006.9 hPa 0.0 l/m 0.2 km/h (0 Bft) O 0.00 h 181 W/m 14.1 C 14.6 C 1.1 km/h (1 Bft)
07.09.2010 13:00 16.0 C 95 % 1006.4 hPa 0.0 l/m 1.5 km/h (1 Bft) NW 0.13 h 357 W/m 15.1 C 16.0 C 3.1 km/h (1 Bft)
07.09.2010 14:00 16.8 C 93 % 1005.7 hPa 0.0 l/m 1.5 km/h (1 Bft) W-NW 0.13 h 229 W/m 15.7 C 16.8 C 2.9 km/h (1 Bft)
07.09.2010 15:00 17.1 C 93 % 1005.2 hPa 0.0 l/m 1.4 km/h (1 Bft) N-NO 0.00 h 142 W/m 15.9 C 17.1 C 3.1 km/h (1 Bft)
07.09.2010 16:00 16.9 C 95 % 1005.0 hPa 0.0 l/m 0.4 km/h (0 Bft) NW 0.00 h 113 W/m 16.1 C 16.9 C 1.6 km/h (1 Bft)
07.09.2010 17:00 17.3 C 94 % 1004.6 hPa 0.0 l/m 0.7 km/h (0 Bft) N 0.00 h 95 W/m 16.3 C 17.3 C 2.1 km/h (1 Bft)
07.09.2010 18:00 17.3 C 94 % 1004.5 hPa 0.0 l/m 0.1 km/h (0 Bft) O-SO 0.00 h 46 W/m 16.4 C 17.3 C 0.5 km/h (0 Bft)
07.09.2010 19:00 17.0 C 95 % 1003.8 hPa 0.0 l/m 0.2 km/h (0 Bft) NO 0.00 h 19 W/m 16.1 C 17.0 C 1.2 km/h (1 Bft)
07.09.2010 20:00 16.5 C 96 % 1004.1 hPa 0.2 l/m 0.0 km/h (0 Bft) NO 0.00 h 0 W/m 15.9 C 16.5 C 0.1 km/h (0 Bft)
07.09.2010 21:00 16.5 C 97 % 1004.6 hPa 0.0 l/m 1.8 km/h (1 Bft) W-NW 0.00 h 0 W/m 16.0 C 16.5 C 3.4 km/h (1 Bft)
07.09.2010 22:00 16.5 C 96 % 1004.2 hPa 0.0 l/m 1.3 km/h (1 Bft) O-SO 0.00 h 0 W/m 16.0 C 16.5 C 2.2 km/h (1 Bft)
07.09.2010 23:00 16.1 C 97 % 1003.9 hPa 0.0 l/m 0.7 km/h (0 Bft) SO 0.00 h 0 W/m 15.7 C 16.1 C 1.2 km/h (1 Bft)
08.09.2010 00:00 15.5 C 98 % 1003.4 hPa 0.0 l/m 0.2 km/h (0 Bft) O-SO 0.00 h 0 W/m 15.1 C 15.5 C 0.7 km/h (0 Bft)
08.09.2010 01:00 15.3 C 98 % 1002.7 hPa 0.0 l/m 0.3 km/h (0 Bft) O 0.00 h 0 W/m 15.1 C 15.3 C 1.0 km/h (0 Bft)
08.09.2010 02:00 15.2 C 98 % 1002.3 hPa 0.0 l/m 0.1 km/h (0 Bft) SO 0.00 h 0 W/m 14.9 C 15.2 C 0.4 km/h (0 Bft)
08.09.2010 03:00 15.2 C 99 % 1002.1 hPa 0.0 l/m 0.0 km/h (0 Bft) O 0.00 h 0 W/m 15.0 C 15.2 C 0.5 km/h (0 Bft)
08.09.2010 04:00 15.4 C 96 % 1002.2 hPa 0.0 l/m 0.4 km/h (0 Bft) O 0.00 h 0 W/m 14.9 C 15.4 C 1.0 km/h (0 Bft)
08.09.2010 05:00 15.3 C 97 % 1002.2 hPa 0.0 l/m 0.0 km/h (0 Bft) N 0.00 h 0 W/m 14.9 C 15.3 C 0.0 km/h (0 Bft)
08.09.2010 06:00 15.1 C 98 % 1002.3 hPa 0.0 l/m 0.5 km/h (0 Bft) NW 0.00 h 0 W/m 14.7 C 15.1 C 1.6 km/h (1 Bft)
08.09.2010 07:00 15.1 C 98 % 1002.7 hPa 0.0 l/m 0.1 km/h (0 Bft) NW 0.00 h 10 W/m 14.8 C 15.1 C 0.7 km/h (0 Bft)
08.09.2010 08:00 15.4 C 98 % 1003.6 hPa 0.2 l/m 0.3 km/h (0 Bft) N-NW 0.00 h 25 W/m 15.0 C 15.4 C 1.1 km/h (1 Bft)
08.09.2010 09:00 15.6 C 98 % 1003.6 hPa 0.0 l/m 0.1 km/h (0 Bft) N-NW 0.00 h 76 W/m 15.4 C 15.6 C 0.4 km/h (0 Bft)
08.09.2010 10:00 16.1 C 97 % 1004.5 hPa 0.8 l/m 0.8 km/h (0 Bft) S-SO 0.00 h 79 W/m 15.7 C 16.1 C 2.2 km/h (1 Bft)
08.09.2010 11:00 16.3 C 97 % 1004.7 hPa 0.4 l/m 1.3 km/h (1 Bft) S 0.00 h 148 W/m 15.8 C 16.3 C 3.7 km/h (1 Bft)
08.09.2010 12:00 15.5 C 96 % 1005.3 hPa 0.8 l/m 1.4 km/h (1 Bft) S-SO 0.00 h 119 W/m 14.9 C 15.5 C 3.7 km/h (1 Bft)
08.09.2010 13:00 15.8 C 95 % 1005.6 hPa 0.6 l/m 1.5 km/h (1 Bft) S-SO 0.00 h 197 W/m 15.1 C 15.8 C 3.4 km/h (1 Bft)
08.09.2010 14:00 16.8 C 95 % 1005.9 hPa 0.0 l/m 0.7 km/h (0 Bft) W 0.15 h 296 W/m 16.1 C 16.8 C 2.3 km/h (1 Bft)
08.09.2010 15:00 17.2 C 92 % 1005.9 hPa 0.0 l/m 0.8 km/h (0 Bft) S-SO 0.13 h 284 W/m 15.8 C 17.2 C 2.5 km/h (1 Bft)
08.09.2010 16:00 17.2 C 90 % 1006.4 hPa 0.0 l/m 1.8 km/h (1 Bft) SO 0.08 h 147 W/m 15.5 C 17.2 C 3.8 km/h (1 Bft)
08.09.2010 17:00 17.0 C 88 % 1007.0 hPa 0.0 l/m 4.6 km/h (1 Bft) W-NW 0.00 h 119 W/m 15.0 C 17.0 C 7.9 km/h (2 Bft)
08.09.2010 18:00 16.7 C 73 % 1008.0 hPa 0.0 l/m 13.9 km/h (3 Bft) W 0.27 h 101 W/m 11.9 C 16.7 C 21.4 km/h (4 Bft)
08.09.2010 19:00 16.0 C 71 % 1009.1 hPa 0.0 l/m 11.3 km/h (2 Bft) W 0.35 h 39 W/m 10.8 C 16.0 C 16.9 km/h (3 Bft)
08.09.2010 20:00 15.2 C 72 % 1010.5 hPa 0.0 l/m 7.1 km/h (2 Bft) W-NW 0.00 h 0 W/m 10.2 C 15.2 C 11.5 km/h (2 Bft)
08.09.2010 21:00 14.1 C 78 % 1011.4 hPa 0.0 l/m 1.3 km/h (1 Bft) W-NW 0.00 h 0 W/m 10.3 C 14.1 C 2.8 km/h (1 Bft)
08.09.2010 22:00 13.7 C 79 % 1011.9 hPa 0.0 l/m 1.0 km/h (0 Bft) W-SW 0.00 h 0 W/m 10.0 C 13.7 C 3.1 km/h (1 Bft)
08.09.2010 23:00 13.8 C 79 % 1012.1 hPa 0.0 l/m 0.5 km/h (0 Bft) W 0.00 h 0 W/m 10.2 C 13.8 C 1.6 km/h (1 Bft)
09.09.2010 00:00 14.0 C 80 % 1012.5 hPa 0.0 l/m 8.3 km/h (2 Bft) W 0.00 h 0 W/m 10.6 C 14.0 C 13.2 km/h (3 Bft)
09.09.2010 01:00 13.4 C 85 % 1012.7 hPa 0.0 l/m 1.5 km/h (1 Bft) W 0.00 h 0 W/m 11.0 C 13.4 C 2.8 km/h (1 Bft)
09.09.2010 02:00 13.3 C 87 % 1012.8 hPa 0.0 l/m 0.3 km/h (0 Bft) S-SO 0.00 h 0 W/m 11.2 C 13.3 C 1.1 km/h (1 Bft)
09.09.2010 03:00 12.9 C 89 % 1012.9 hPa 0.0 l/m 0.4 km/h (0 Bft) S-SO 0.00 h 0 W/m 11.2 C 12.9 C 1.2 km/h (1 Bft)
09.09.2010 04:00 12.8 C 91 % 1013.3 hPa 0.0 l/m 1.1 km/h (1 Bft) S-SO 0.00 h 0 W/m 11.4 C 12.8 C 2.4 km/h (1 Bft)
09.09.2010 05:00 12.4 C 94 % 1013.3 hPa 0.0 l/m 1.0 km/h (0 Bft) SO 0.00 h 0 W/m 11.4 C 12.4 C 2.1 km/h (1 Bft)
09.09.2010 06:00 12.2 C 94 % 1013.7 hPa 0.0 l/m 0.0 km/h (0 Bft) SO 0.00 h 0 W/m 11.3 C 12.2 C 0.4 km/h (0 Bft)
09.09.2010 07:00 11.9 C 95 % 1014.2 hPa 0.0 l/m 0.3 km/h (0 Bft) SO 0.00 h 22 W/m 11.2 C 11.9 C 0.9 km/h (0 Bft)
09.09.2010 08:00 12.3 C 96 % 1014.6 hPa 0.0 l/m 0.0 km/h (0 Bft) SO 0.18 h 86 W/m 11.7 C 12.3 C 0.2 km/h (0 Bft)
09.09.2010 09:00 14.5 C 89 % 1015.4 hPa 0.0 l/m 1.6 km/h (1 Bft) S-SO 0.80 h 346 W/m 12.7 C 14.5 C 3.5 km/h (1 Bft)
09.09.2010 10:00 16.1 C 82 % 1015.9 hPa 0.0 l/m 2.6 km/h (1 Bft) S-SO 0.27 h 288 W/m 12.9 C 16.1 C 5.0 km/h (1 Bft)
09.09.2010 11:00 16.4 C 78 % 1016.4 hPa 0.0 l/m 5.9 km/h (2 Bft) W 0.75 h 460 W/m 12.7 C 16.4 C 9.5 km/h (2 Bft)
09.09.2010 12:00 18.0 C 72 % 1016.4 hPa 0.0 l/m 9.6 km/h (2 Bft) W 0.77 h 606 W/m 12.9 C 18.0 C 16.1 km/h (3 Bft)
09.09.2010 13:00 19.0 C 69 % 1016.4 hPa 0.0 l/m 7.9 km/h (2 Bft) W 1.00 h 714 W/m 13.1 C 19.0 C 12.7 km/h (3 Bft)
09.09.2010 14:00 19.9 C 64 % 1016.3 hPa 0.0 l/m 7.0 km/h (2 Bft) W 1.00 h 743 W/m 13.0 C 19.9 C 11.3 km/h (2 Bft)
09.09.2010 15:00 20.7 C 62 % 1016.3 hPa 0.0 l/m 8.0 km/h (2 Bft) W 0.95 h 624 W/m 13.1 C 20.7 C 12.9 km/h (3 Bft)
09.09.2010 16:00 19.2 C 68 % 1016.6 hPa 0.0 l/m 7.2 km/h (2 Bft) W 0.32 h 273 W/m 13.1 C 19.2 C 11.6 km/h (2 Bft)
09.09.2010 17:00 18.8 C 70 % 1017.0 hPa 0.0 l/m 7.1 km/h (2 Bft) W 0.33 h 213 W/m 13.1 C 18.8 C 11.0 km/h (2 Bft)
09.09.2010 18:00 18.4 C 71 % 1017.3 hPa 0.0 l/m 3.6 km/h (1 Bft) W-NW 0.12 h 74 W/m 13.1 C 18.4 C 6.1 km/h (2 Bft)
09.09.2010 19:00 17.6 C 75 % 1018.0 hPa 0.0 l/m 0.7 km/h (0 Bft) W-NW 0.00 h 24 W/m 13.2 C 17.6 C 1.7 km/h (1 Bft)
09.09.2010 20:00 16.0 C 84 % 1019.0 hPa 0.0 l/m 1.6 km/h (1 Bft) W-NW 0.00 h 0 W/m 13.3 C 16.0 C 2.3 km/h (1 Bft)
09.09.2010 21:00 15.5 C 87 % 1019.9 hPa 0.0 l/m 0.8 km/h (0 Bft) O-SO 0.00 h 0 W/m 13.3 C 15.5 C 2.0 km/h (1 Bft)
09.09.2010 22:00 15.2 C 87 % 1020.6 hPa 0.0 l/m 0.5 km/h (0 Bft) S 0.00 h 0 W/m 13.0 C 15.2 C 1.6 km/h (1 Bft)
09.09.2010 23:00 14.9 C 88 % 1020.8 hPa 0.0 l/m 1.8 km/h (1 Bft) W 0.00 h 0 W/m 12.9 C 14.9 C 3.8 km/h (1 Bft)
10.09.2010 00:00 14.6 C 88 % 1021.1 hPa 0.0 l/m 0.6 km/h (0 Bft) W-NW 0.00 h 0 W/m 12.8 C 14.6 C 1.8 km/h (1 Bft)
10.09.2010 01:00 14.3 C 91 % 1021.2 hPa 0.0 l/m 0.0 km/h (0 Bft) W-NW 0.00 h 0 W/m 12.9 C 14.3 C 0.2 km/h (0 Bft)
10.09.2010 02:00 13.7 C 94 % 1021.3 hPa 0.0 l/m 0.0 km/h (0 Bft) N 0.00 h 0 W/m 12.8 C 13.7 C 0.1 km/h (0 Bft)
10.09.2010 03:00 13.6 C 94 % 1021.5 hPa 0.0 l/m 0.0 km/h (0 Bft) W-NW 0.00 h 0 W/m 12.7 C 13.6 C 0.2 km/h (0 Bft)
10.09.2010 04:00 13.5 C 94 % 1021.8 hPa 0.0 l/m 0.2 km/h (0 Bft) W-NW 0.00 h 0 W/m 12.6 C 13.5 C 0.8 km/h (0 Bft)
10.09.2010 05:00 13.7 C 94 % 1021.8 hPa 0.0 l/m 0.0 km/h (0 Bft) SO 0.00 h 0 W/m 12.7 C 13.7 C 0.4 km/h (0 Bft)
10.09.2010 06:00 13.4 C 95 % 1022.1 hPa 0.0 l/m 0.0 km/h (0 Bft) O-NO 0.00 h 0 W/m 12.6 C 13.4 C 0.5 km/h (0 Bft)
10.09.2010 07:00 13.6 C 95 % 1022.6 hPa 0.0 l/m 0.0 km/h (0 Bft) N 0.00 h 22 W/m 12.8 C 13.6 C 0.1 km/h (0 Bft)
10.09.2010 08:00 14.5 C 93 % 1023.0 hPa 0.0 l/m 0.0 km/h (0 Bft) N 0.10 h 113 W/m 13.3 C 14.5 C 0.0 km/h (0 Bft)
10.09.2010 09:00 15.6 C 89 % 1023.2 hPa 0.0 l/m 0.4 km/h (0 Bft) SW 0.20 h 179 W/m 13.7 C 15.6 C 0.9 km/h (0 Bft)
10.09.2010 10:00 16.6 C 83 % 1023.3 hPa 0.0 l/m 2.6 km/h (1 Bft) W 0.37 h 298 W/m 13.7 C 16.6 C 5.2 km/h (1 Bft)
10.09.2010 11:00 18.9 C 74 % 1022.9 hPa 0.0 l/m 2.7 km/h (1 Bft) W 1.00 h 717 W/m 14.2 C 18.9 C 5.1 km/h (1 Bft)
10.09.2010 12:00 19.2 C 72 % 1022.5 hPa 0.0 l/m 4.9 km/h (1 Bft) N-NW 0.72 h 631 W/m 14.0 C 19.2 C 7.8 km/h (2 Bft)
10.09.2010 13:00 20.7 C 66 % 1022.2 hPa 0.0 l/m 2.9 km/h (1 Bft) W 0.95 h 802 W/m 14.1 C 20.7 C 5.3 km/h (1 Bft)
10.09.2010 14:00 20.9 C 62 % 1022.0 hPa 0.0 l/m 3.8 km/h (1 Bft) W-NW 0.38 h 530 W/m 13.3 C 20.9 C 6.5 km/h (2 Bft)
10.09.2010 15:00 19.6 C 64 % 1021.8 hPa 0.0 l/m 3.2 km/h (1 Bft) N-NW 0.00 h 217 W/m 12.7 C 19.6 C 5.6 km/h (1 Bft)
10.09.2010 16:00 21.1 C 62 % 1021.5 hPa 0.0 l/m 2.8 km/h (1 Bft) N-NW 0.72 h 432 W/m 13.3 C 21.1 C 5.4 km/h (1 Bft)
10.09.2010 17:00 21.6 C 59 % 1021.1 hPa 0.0 l/m 4.6 km/h (1 Bft) N-NW 0.88 h 304 W/m 13.2 C 21.6 C 7.2 km/h (2 Bft)
10.09.2010 18:00 19.8 C 64 % 1020.9 hPa 0.0 l/m 2.5 km/h (1 Bft) N-NW 0.40 h 89 W/m 12.8 C 19.8 C 4.2 km/h (1 Bft)
10.09.2010 19:00 18.7 C 73 % 1021.1 hPa 0.0 l/m 0.0 km/h (0 Bft) N-NW 0.25 h 32 W/m 13.7 C 18.7 C 0.3 km/h (0 Bft)
10.09.2010 20:00 16.2 C 84 % 1021.6 hPa 0.0 l/m 2.3 km/h (1 Bft) O 0.00 h 0 W/m 13.5 C 16.2 C 3.4 km/h (1 Bft)
10.09.2010 21:00 14.6 C 89 % 1022.4 hPa 0.0 l/m 0.8 km/h (0 Bft) O-SO 0.00 h 0 W/m 12.8 C 14.6 C 1.8 km/h (1 Bft)
10.09.2010 22:00 13.5 C 91 % 1022.5 hPa 0.0 l/m 1.1 km/h (0 Bft) O-SO 0.00 h 0 W/m 12.1 C 13.5 C 1.7 km/h (1 Bft)
10.09.2010 23:00 12.7 C 93 % 1022.5 hPa 0.0 l/m 1.1 km/h (1 Bft) O-SO 0.00 h 0 W/m 11.6 C 12.7 C 2.3 km/h (1 Bft)
11.09.2010 00:00 12.2 C 94 % 1022.2 hPa 0.0 l/m 1.0 km/h (0 Bft) O-SO 0.00 h 0 W/m 11.2 C 12.2 C 2.3 km/h (1 Bft)
11.09.2010 01:00 11.5 C 96 % 1021.9 hPa 0.0 l/m 0.2 km/h (0 Bft) O-SO 0.00 h 0 W/m 10.9 C 11.5 C 0.7 km/h (0 Bft)
11.09.2010 02:00 11.1 C 96 % 1021.7 hPa 0.0 l/m 0.4 km/h (0 Bft) O-SO 0.00 h 0 W/m 10.5 C 11.1 C 0.9 km/h (0 Bft)
11.09.2010 03:00 10.6 C 96 % 1021.5 hPa 0.0 l/m 0.2 km/h (0 Bft) O-SO 0.00 h 0 W/m 10.1 C 10.6 C 0.5 km/h (0 Bft)
11.09.2010 04:00 10.3 C 97 % 1021.2 hPa 0.0 l/m 0.0 km/h (0 Bft) N 0.00 h 0 W/m 9.9 C 10.3 C 0.1 km/h (0 Bft)
11.09.2010 05:00 9.8 C 97 % 1021.0 hPa 0.0 l/m 0.1 km/h (0 Bft) O-SO 0.00 h 0 W/m 9.4 C 9.8 C 0.8 km/h (0 Bft)
11.09.2010 06:00 9.7 C 98 % 1021.1 hPa 0.0 l/m 0.7 km/h (0 Bft) O-SO 0.00 h 0 W/m 9.4 C 9.7 C 1.6 km/h (1 Bft)
11.09.2010 07:00 10.4 C 98 % 1021.1 hPa 0.0 l/m 0.2 km/h (0 Bft) O-SO 0.00 h 16 W/m 10.1 C 10.4 C 0.7 km/h (0 Bft)
11.09.2010 08:00 10.9 C 99 % 1021.3 hPa 0.0 l/m 0.8 km/h (0 Bft) W-NW 0.00 h 56 W/m 10.7 C 10.9 C 1.9 km/h (1 Bft)
11.09.2010 09:00 12.4 C 98 % 1021.4 hPa 0.0 l/m 0.9 km/h (0 Bft) W-NW 0.05 h 162 W/m 12.1 C 12.4 C 2.6 km/h (1 Bft)
11.09.2010 10:00 14.3 C 92 % 1021.5 hPa 0.0 l/m 3.2 km/h (1 Bft) SO 0.57 h 375 W/m 13.0 C 14.3 C 6.3 km/h (2 Bft)
11.09.2010 11:00 17.0 C 83 % 1021.0 hPa 0.0 l/m 4.0 km/h (1 Bft) O-SO 1.00 h 599 W/m 14.1 C 17.0 C 6.8 km/h (2 Bft)
11.09.2010 12:00 19.5 C 76 % 1020.5 hPa 0.0 l/m 1.8 km/h (1 Bft) O-SO 1.00 h 677 W/m 15.1 C 19.5 C 4.2 km/h (1 Bft)
11.09.2010 13:00 21.0 C 66 % 1020.0 hPa 0.0 l/m 5.2 km/h (1 Bft) O-SO 1.00 h 696 W/m 14.4 C 21.0 C 9.0 km/h (2 Bft)
11.09.2010 14:00 21.8 C 61 % 1019.6 hPa 0.0 l/m 6.6 km/h (2 Bft) O-SO 0.60 h 476 W/m 14.0 C 21.8 C 10.2 km/h (2 Bft)
11.09.2010 15:00 22.4 C 57 % 1018.9 hPa 0.0 l/m 6.7 km/h (2 Bft) O-SO 0.73 h 455 W/m 13.4 C 22.4 C 10.8 km/h (2 Bft)
11.09.2010 16:00 22.6 C 52 % 1018.6 hPa 0.0 l/m 5.6 km/h (1 Bft) O-SO 1.00 h 471 W/m 12.3 C 22.6 C 9.0 km/h (2 Bft)
11.09.2010 17:00 22.4 C 52 % 1018.4 hPa 0.0 l/m 6.3 km/h (2 Bft) O-SO 0.88 h 293 W/m 12.1 C 22.4 C 9.1 km/h (2 Bft)
11.09.2010 18:00 21.7 C 55 % 1018.1 hPa 0.0 l/m 3.2 km/h (1 Bft) O-SO 0.25 h 69 W/m 12.3 C 21.7 C 5.5 km/h (1 Bft)
11.09.2010 19:00 20.1 C 63 % 1018.2 hPa 0.0 l/m 0.4 km/h (0 Bft) O-SO 0.13 h 31 W/m 12.7 C 20.1 C 1.2 km/h (1 Bft)
11.09.2010 20:00 17.0 C 76 % 1018.6 hPa 0.0 l/m 0.1 km/h (0 Bft) O-SO 0.00 h 0 W/m 12.7 C 17.0 C 0.5 km/h (0 Bft)
11.09.2010 21:00 15.1 C 84 % 1019.0 hPa 0.0 l/m 0.4 km/h (0 Bft) O-SO 0.00 h 0 W/m 12.3 C 15.1 C 1.2 km/h (1 Bft)
11.09.2010 22:00 13.7 C 89 % 1019.2 hPa 0.0 l/m 1.2 km/h (1 Bft) O-SO 0.00 h 0 W/m 11.8 C 13.7 C 2.1 km/h (1 Bft)
11.09.2010 23:00 13.0 C 91 % 1019.1 hPa 0.0 l/m 0.8 km/h (0 Bft) O-SO 0.00 h 0 W/m 11.7 C 13.0 C 1.6 km/h (1 Bft)
12.09.2010 00:00 12.9 C 92 % 1018.8 hPa 0.0 l/m 1.1 km/h (1 Bft) O-SO 0.00 h 0 W/m 11.6 C 12.9 C 2.3 km/h (1 Bft)
12.09.2010 01:00 12.3 C 93 % 1018.5 hPa 0.0 l/m 0.4 km/h (0 Bft) O-SO 0.00 h 0 W/m 11.2 C 12.3 C 1.3 km/h (1 Bft)
12.09.2010 02:00 12.0 C 94 % 1018.4 hPa 0.0 l/m 1.3 km/h (1 Bft) O-SO 0.00 h 0 W/m 11.0 C 12.0 C 2.4 km/h (1 Bft)
12.09.2010 03:00 11.3 C 95 % 1018.4 hPa 0.0 l/m 1.1 km/h (1 Bft) O-SO 0.00 h 0 W/m 10.5 C 11.3 C 2.0 km/h (1 Bft)
12.09.2010 04:00 10.7 C 96 % 1018.4 hPa 0.0 l/m 1.4 km/h (1 Bft) O-SO 0.00 h 0 W/m 10.1 C 10.7 C 2.3 km/h (1 Bft)
12.09.2010 05:00 10.2 C 96 % 1018.5 hPa 0.0 l/m 0.1 km/h (0 Bft) O-SO 0.00 h 0 W/m 9.6 C 10.2 C 0.3 km/h (0 Bft)
12.09.2010 06:00 9.6 C 97 % 1018.7 hPa 0.0 l/m 0.1 km/h (0 Bft) O-SO 0.00 h 7 W/m 9.1 C 9.6 C 0.3 km/h (0 Bft)
12.09.2010 07:00 9.9 C 97 % 1019.2 hPa 0.2 l/m 0.9 km/h (0 Bft) O-SO 0.12 h 33 W/m 9.5 C 9.9 C 2.0 km/h (1 Bft)
12.09.2010 08:00 11.3 C 96 % 1019.6 hPa 0.0 l/m 0.0 km/h (0 Bft) O-SO 0.17 h 124 W/m 10.7 C 11.3 C 0.4 km/h (0 Bft)
12.09.2010 09:00 13.8 C 91 % 1019.5 hPa 0.0 l/m 0.1 km/h (0 Bft) O-SO 0.75 h 270 W/m 12.4 C 13.8 C 0.5 km/h (0 Bft)
12.09.2010 10:00 15.9 C 85 % 1019.5 hPa 0.0 l/m 0.3 km/h (0 Bft) W-SW 0.98 h 424 W/m 13.5 C 15.9 C 1.4 km/h (1 Bft)
12.09.2010 11:00 17.8 C 80 % 1019.2 hPa 0.0 l/m 1.2 km/h (1 Bft) W 1.00 h 474 W/m 14.3 C 17.8 C 2.7 km/h (1 Bft)
12.09.2010 12:00 19.7 C 75 % 1018.6 hPa 0.0 l/m 0.8 km/h (0 Bft) S-SO 1.00 h 629 W/m 15.1 C 19.7 C 2.7 km/h (1 Bft)
12.09.2010 13:00 21.2 C 71 % 1018.1 hPa 0.0 l/m 1.4 km/h (1 Bft) W-SW 0.88 h 607 W/m 15.6 C 21.2 C 3.5 km/h (1 Bft)
12.09.2010 14:00 22.3 C 67 % 1017.8 hPa 0.0 l/m 8.8 km/h (2 Bft) W 0.73 h 549 W/m 15.8 C 22.3 C 13.7 km/h (3 Bft)
12.09.2010 15:00 22.9 C 67 % 1017.5 hPa 0.0 l/m 7.1 km/h (2 Bft) W 0.77 h 472 W/m 16.3 C 22.9 C 11.8 km/h (2 Bft)
12.09.2010 16:00 24.2 C 60 % 1017.1 hPa 0.0 l/m 8.0 km/h (2 Bft) W 1.00 h 461 W/m 15.9 C 24.2 C 13.0 km/h (3 Bft)
12.09.2010 17:00 23.3 C 61 % 1016.9 hPa 0.0 l/m 6.6 km/h (2 Bft) W-SW 0.38 h 210 W/m 15.3 C 23.3 C 11.3 km/h (2 Bft)
12.09.2010 18:00 21.9 C 66 % 1016.8 hPa 0.0 l/m 2.4 km/h (1 Bft) W 0.25 h 89 W/m 15.3 C 21.9 C 5.1 km/h (1 Bft)
12.09.2010 19:00 20.8 C 70 % 1016.6 hPa 0.0 l/m 1.0 km/h (0 Bft) SO 0.05 h 18 W/m 15.0 C 20.8 C 2.4 km/h (1 Bft)
12.09.2010 20:00 19.7 C 75 % 1017.3 hPa 0.0 l/m 0.7 km/h (0 Bft) SO 0.00 h 0 W/m 15.1 C 19.7 C 1.6 km/h (1 Bft)
12.09.2010 21:00 16.5 C 89 % 1018.7 hPa 1.8 l/m 20.2 km/h (4 Bft) W 0.00 h 0 W/m 14.6 C 16.5 C 31.0 km/h (5 Bft)
12.09.2010 22:00 14.9 C 87 % 1020.8 hPa 0.0 l/m 7.2 km/h (2 Bft) W-NW 0.00 h 0 W/m 12.8 C 14.9 C 12.1 km/h (2 Bft)
12.09.2010 23:00 14.7 C 90 % 1021.8 hPa 0.2 l/m 2.3 km/h (1 Bft) S-SO 0.00 h 0 W/m 13.1 C 14.7 C 4.9 km/h (1 Bft)
Min-Datum _ 06.09.10 06.09.10 08.09.10 - 06.09.10 - - - 06.09.10 06.09.10 06.09.10
_ Min-Zeit 07:00 14:00 03:45 - 00:00 - - - 07:02 07:02 00:00
Minimum _ 9.1 C 49 % 1001.8 hPa - 0.0 km/h (0 Bft) - - - 8.5 C 9.1 C 0.0 km/h (0 Bft)
Max-Datum _ 12.09.10 08.09.10 10.09.10 12.09.10 12.09.10 - 06.09.10 10.09.10 12.09.10 12.09.10 12.09.10
_ Max-Zeit 17:11 01:46 10:00 21:07 21:34 - 07:02 14:09 16:32 17:11 21:35
Maximum _ 24.8 C 99 % 1023.3 hPa 1.8 l/m 33.9 km/h
W (5 Bft)
- 0.02 h 1060 W/m 17.2 C 24.8 C 59.1 km/h
W (7 Bft)
Durchschnitt _ 15.6 C 84 % 1014.7 hPa #9.8 l/m 2.2 km/h (1 Bft) O-SO #36:50 h 274 W/m 12.6 C 15.6 C 4.0 km/h (1 Bft)
© Kaiko 2010